sensor_id;sensor_type;location;lat;lon;timestamp;pressure;altitude;pressure_sealevel;temperature;humidity
42945;BME280;28584;42.636;23.294;2023-04-25T00:02:07;160855.41;;;8.65;100.00
42945;BME280;28584;42.636;23.294;2023-04-25T00:04:33;160832.75;;;8.56;100.00
42945;BME280;28584;42.636;23.294;2023-04-25T00:06:59;160851.41;;;8.63;100.00
42945;BME280;28584;42.636;23.294;2023-04-25T00:09:27;160847.41;;;8.62;100.00
42945;BME280;28584;42.636;23.294;2023-04-25T00:11:53;160846.06;;;8.61;100.00
42945;BME280;28584;42.636;23.294;2023-04-25T00:14:18;160840.75;;;8.59;100.00
42945;BME280;28584;42.636;23.294;2023-04-25T00:16:44;160828.75;;;8.55;100.00
42945;BME280;28584;42.636;23.294;2023-04-25T00:19:09;160823.38;;;8.52;100.00
42945;BME280;28584;42.636;23.294;2023-04-25T00:21:35;160823.38;;;8.52;100.00
42945;BME280;28584;42.636;23.294;2023-04-25T00:24:00;160811.41;;;8.48;100.00
42945;BME280;28584;42.636;23.294;2023-04-25T00:26:27;160814.06;;;8.49;100.00
42945;BME280;28584;42.636;23.294;2023-04-25T00:28:52;160819.44;;;8.51;100.00
42945;BME280;28584;42.636;23.294;2023-04-25T00:31:17;160811.41;;;8.48;100.00
42945;BME280;28584;42.636;23.294;2023-04-25T00:33:43;160847.41;;;8.62;100.00
42945;BME280;28584;42.636;23.294;2023-04-25T00:36:08;160868.72;;;8.70;100.00
42945;BME280;28584;42.636;23.294;2023-04-25T00:38:34;160866.09;;;8.69;100.00
42945;BME280;28584;42.636;23.294;2023-04-25T00:41:00;160911.44;;;8.86;100.00
42945;BME280;28584;42.636;23.294;2023-04-25T00:43:30;160879.44;;;8.74;100.00
42945;BME280;28584;42.636;23.294;2023-04-25T00:45:56;160839.41;;;8.59;100.00
42945;BME280;28584;42.636;23.294;2023-04-25T00:48:22;160819.44;;;8.51;100.00
42945;BME280;28584;42.636;23.294;2023-04-25T00:50:52;160816.72;;;8.50;100.00
42945;BME280;28584;42.636;23.294;2023-04-25T00:53:19;160807.41;;;8.47;100.00
42945;BME280;28584;42.636;23.294;2023-04-25T00:55:45;160799.41;;;8.43;100.00
42945;BME280;28584;42.636;23.294;2023-04-25T00:58:10;160816.72;;;8.50;100.00
42945;BME280;28584;42.636;23.294;2023-04-25T01:00:36;160814.06;;;8.49;100.00
42945;BME280;28584;42.636;23.294;2023-04-25T01:03:03;160826.09;;;8.54;100.00
42945;BME280;28584;42.636;23.294;2023-04-25T01:05:29;160839.41;;;8.59;100.00
42945;BME280;28584;42.636;23.294;2023-04-25T01:07:54;160843.41;;;8.60;100.00
42945;BME280;28584;42.636;23.294;2023-04-25T01:10:20;160856.78;;;8.65;100.00
42945;BME280;28584;42.636;23.294;2023-04-25T01:12:46;160830.09;;;8.55;100.00
42945;BME280;28584;42.636;23.294;2023-04-25T01:15:12;160812.72;;;8.48;100.00
42945;BME280;28584;42.636;23.294;2023-04-25T01:17:37;160795.41;;;8.42;100.00
42945;BME280;28584;42.636;23.294;2023-04-25T01:20:04;160748.69;;;8.24;100.00
42945;BME280;28584;42.636;23.294;2023-04-25T01:22:31;160756.72;;;8.27;100.00
42945;BME280;28584;42.636;23.294;2023-04-25T01:24:56;160740.75;;;8.21;100.00
42945;BME280;28584;42.636;23.294;2023-04-25T01:27:22;160740.75;;;8.21;100.00
42945;BME280;28584;42.636;23.294;2023-04-25T01:29:48;160702.00;;;8.07;100.00
42945;BME280;28584;42.636;23.294;2023-04-25T01:32:14;160682.00;;;7.99;100.00
42945;BME280;28584;42.636;23.294;2023-04-25T01:34:40;160640.66;;;7.84;100.00
42945;BME280;28584;42.636;23.294;2023-04-25T01:37:05;160635.34;;;7.82;100.00
42945;BME280;28584;42.636;23.294;2023-04-25T01:39:31;160587.34;;;7.64;100.00
42945;BME280;28584;42.636;23.294;2023-04-25T01:41:57;160592.69;;;7.66;100.00
42945;BME280;28584;42.636;23.294;2023-04-25T01:44:23;160599.34;;;7.68;100.00
42945;BME280;28584;42.636;23.294;2023-04-25T01:46:48;160579.38;;;7.61;100.00
42945;BME280;28584;42.636;23.294;2023-04-25T01:49:14;160571.38;;;7.58;100.00
42945;BME280;28584;42.636;23.294;2023-04-25T01:51:39;160552.72;;;7.51;100.00
42945;BME280;28584;42.636;23.294;2023-04-25T01:54:05;160528.72;;;7.42;100.00
42945;BME280;28584;42.636;23.294;2023-04-25T01:56:31;160536.72;;;7.45;100.00
42945;BME280;28584;42.636;23.294;2023-04-25T01:58:59;160564.66;;;7.55;100.00
42945;BME280;28584;42.636;23.294;2023-04-25T02:01:24;160579.38;;;7.61;100.00
42945;BME280;28584;42.636;23.294;2023-04-25T02:03:50;160576.69;;;7.60;100.00
42945;BME280;28584;42.636;23.294;2023-04-25T02:06:15;160584.69;;;7.63;100.00
42945;BME280;28584;42.636;23.294;2023-04-25T02:08:41;160582.03;;;7.62;100.00
42945;BME280;28584;42.636;23.294;2023-04-25T02:11:06;160622.00;;;7.77;100.00
42945;BME280;28584;42.636;23.294;2023-04-25T02:13:32;160624.66;;;7.78;100.00
42945;BME280;28584;42.636;23.294;2023-04-25T02:15:58;160651.31;;;7.88;100.00
42945;BME280;28584;42.636;23.294;2023-04-25T02:18:23;160654.03;;;7.89;100.00
42945;BME280;28584;42.636;23.294;2023-04-25T02:20:48;160598.03;;;7.68;100.00
42945;BME280;28584;42.636;23.294;2023-04-25T02:23:14;160627.34;;;7.79;100.00
42945;BME280;28584;42.636;23.294;2023-04-25T02:25:41;160584.69;;;7.63;100.00
42945;BME280;28584;42.636;23.294;2023-04-25T02:28:06;160579.38;;;7.61;100.00
42945;BME280;28584;42.636;23.294;2023-04-25T02:30:31;160550.00;;;7.50;100.00
42945;BME280;28584;42.636;23.294;2023-04-25T02:32:57;160526.06;;;7.41;100.00
42945;BME280;28584;42.636;23.294;2023-04-25T02:35:22;160504.69;;;7.33;100.00
42945;BME280;28584;42.636;23.294;2023-04-25T02:37:47;160454.09;;;7.14;100.00
42945;BME280;28584;42.636;23.294;2023-04-25T02:40:13;160430.09;;;7.05;100.00
42945;BME280;28584;42.636;23.294;2023-04-25T02:42:38;160400.78;;;6.94;100.00
42945;BME280;28584;42.636;23.294;2023-04-25T02:45:04;160392.78;;;6.91;100.00
42945;BME280;28584;42.636;23.294;2023-04-25T02:47:30;160387.50;;;6.89;100.00
42945;BME280;28584;42.636;23.294;2023-04-25T02:49:55;160388.78;;;6.89;100.00
42945;BME280;28584;42.636;23.294;2023-04-25T02:52:21;160383.50;;;6.87;100.00
42945;BME280;28584;42.636;23.294;2023-04-25T02:54:46;160371.50;;;6.83;100.00
42945;BME280;28584;42.636;23.294;2023-04-25T02:57:12;160347.50;;;6.74;100.00
42945;BME280;28584;42.636;23.294;2023-04-25T02:59:37;160368.84;;;6.82;100.00
42945;BME280;28584;42.636;23.294;2023-04-25T03:02:02;160364.84;;;6.80;100.00
42945;BME280;28584;42.636;23.294;2023-04-25T03:04:28;160363.50;;;6.80;100.00
42945;BME280;28584;42.636;23.294;2023-04-25T03:06:53;160384.78;;;6.88;100.00
42945;BME280;28584;42.636;23.294;2023-04-25T03:09:19;160428.78;;;7.04;100.00
42945;BME280;28584;42.636;23.294;2023-04-25T03:11:45;160575.38;;;7.59;100.00
42945;BME280;28584;42.636;23.294;2023-04-25T03:14:11;160620.69;;;7.76;100.00
42945;BME280;28584;42.636;23.294;2023-04-25T03:16:36;160628.66;;;7.79;100.00
42945;BME280;28584;42.636;23.294;2023-04-25T03:19:02;160619.34;;;7.76;100.00
42945;BME280;28584;42.636;23.294;2023-04-25T03:21:28;160603.34;;;7.70;100.00
42945;BME280;28584;42.636;23.294;2023-04-25T03:23:53;160596.69;;;7.67;100.00
42945;BME280;28584;42.636;23.294;2023-04-25T03:26:18;160598.03;;;7.68;100.00
42945;BME280;28584;42.636;23.294;2023-04-25T03:28:44;160634.00;;;7.81;100.00
42945;BME280;28584;42.636;23.294;2023-04-25T03:31:10;160648.66;;;7.87;100.00
42945;BME280;28584;42.636;23.294;2023-04-25T03:33:35;160638.00;;;7.83;100.00
42945;BME280;28584;42.636;23.294;2023-04-25T03:36:00;160642.00;;;7.84;100.00
42945;BME280;28584;42.636;23.294;2023-04-25T03:38:26;160642.00;;;7.84;100.00
42945;BME280;28584;42.636;23.294;2023-04-25T03:40:51;160663.31;;;7.92;100.00
42945;BME280;28584;42.636;23.294;2023-04-25T03:43:17;160644.66;;;7.85;100.00
42945;BME280;28584;42.636;23.294;2023-04-25T03:45:42;160632.66;;;7.81;100.00
42945;BME280;28584;42.636;23.294;2023-04-25T03:48:07;160707.31;;;8.09;100.00
42945;BME280;28584;42.636;23.294;2023-04-25T03:50:33;160766.06;;;8.31;100.00
42945;BME280;28584;42.636;23.294;2023-04-25T03:52:58;160868.72;;;8.70;100.00
42945;BME280;28584;42.636;23.294;2023-04-25T03:55:24;160968.84;;;9.07;100.00
42945;BME280;28584;42.636;23.294;2023-04-25T03:57:49;161051.56;;;9.38;100.00
42945;BME280;28584;42.636;23.294;2023-04-25T04:00:14;161123.66;;;9.65;100.00
42945;BME280;28584;42.636;23.294;2023-04-25T04:02:40;161206.41;;;9.96;100.00
42945;BME280;28584;42.636;23.294;2023-04-25T04:05:05;161261.22;;;10.17;100.00
42945;BME280;28584;42.636;23.294;2023-04-25T04:07:31;161281.28;;;10.24;100.00
42945;BME280;28584;42.636;23.294;2023-04-25T04:09:58;161262.59;;;10.17;100.00
42945;BME280;28584;42.636;23.294;2023-04-25T04:12:24;161277.28;;;10.23;100.00
42945;BME280;28584;42.636;23.294;2023-04-25T04:14:49;161209.09;;;9.97;100.00
42945;BME280;28584;42.636;23.294;2023-04-25T04:17:14;161225.09;;;10.03;100.00
42945;BME280;28584;42.636;23.294;2023-04-25T04:19:40;161195.72;;;9.92;100.00
42945;BME280;28584;42.636;23.294;2023-04-25T04:22:05;161217.13;;;10.00;100.00
42945;BME280;28584;42.636;23.294;2023-04-25T04:24:31;161229.09;;;10.05;100.00
42945;BME280;28584;42.636;23.294;2023-04-25T04:26:56;161214.41;;;9.99;100.00
42945;BME280;28584;42.636;23.294;2023-04-25T04:29:22;161058.25;;;9.41;100.00
42945;BME280;28584;42.636;23.294;2023-04-25T04:31:50;160998.19;;;9.18;100.00
42945;BME280;28584;42.636;23.294;2023-04-25T04:34:17;160895.44;;;8.80;100.00
42945;BME280;28584;42.636;23.294;2023-04-25T04:36:44;160960.81;;;9.04;100.00
42945;BME280;28584;42.636;23.294;2023-04-25T04:39:11;161006.19;;;9.21;100.00
42945;BME280;28584;42.636;23.294;2023-04-25T04:41:37;160996.81;;;9.18;100.00
42945;BME280;28584;42.636;23.294;2023-04-25T04:44:03;161016.88;;;9.25;100.00
42945;BME280;28584;42.636;23.294;2023-04-25T04:46:28;161060.91;;;9.42;100.00
42945;BME280;28584;42.636;23.294;2023-04-25T04:48:53;161110.28;;;9.60;100.00
42945;BME280;28584;42.636;23.294;2023-04-25T04:51:19;161154.34;;;9.77;100.00
42945;BME280;28584;42.636;23.294;2023-04-25T04:53:45;161171.72;;;9.83;100.00
42945;BME280;28584;42.636;23.294;2023-04-25T04:56:11;161209.09;;;9.97;100.00
42945;BME280;28584;42.636;23.294;2023-04-25T04:58:37;161225.09;;;10.03;100.00
42945;BME280;28584;42.636;23.294;2023-04-25T05:01:02;161218.44;;;10.01;100.00
42945;BME280;28584;42.636;23.294;2023-04-25T05:03:28;161193.06;;;9.91;100.00
42945;BME280;28584;42.636;23.294;2023-04-25T05:05:53;161075.56;;;9.47;100.00
42945;BME280;28584;42.636;23.294;2023-04-25T05:08:18;161104.94;;;9.58;100.00
42945;BME280;28584;42.636;23.294;2023-04-25T05:10:44;161047.56;;;9.37;100.00
42945;BME280;28584;42.636;23.294;2023-04-25T05:13:09;161008.84;;;9.22;100.00
42945;BME280;28584;42.636;23.294;2023-04-25T05:15:35;161038.22;;;9.33;100.00
42945;BME280;28584;42.636;23.294;2023-04-25T05:21:22;161153.03;;;9.76;100.00
42945;BME280;28584;42.636;23.294;2023-04-25T05:23:47;161145.00;;;9.73;100.00
42945;BME280;28584;42.636;23.294;2023-04-25T05:26:13;161147.66;;;9.74;100.00
42945;BME280;28584;42.636;23.294;2023-04-25T05:28:41;161040.91;;;9.34;100.00
42945;BME280;28584;42.636;23.294;2023-04-25T05:31:07;161016.88;;;9.25;100.00
42945;BME280;28584;42.636;23.294;2023-04-25T05:33:34;160946.16;;;8.99;100.00
42945;BME280;28584;42.636;23.294;2023-04-25T05:36:00;160886.09;;;8.76;100.00
42945;BME280;28584;42.636;23.294;2023-04-25T05:38:25;160907.44;;;8.84;100.00
42945;BME280;28584;42.636;23.294;2023-04-25T05:40:51;160903.44;;;8.83;100.00
42945;BME280;28584;42.636;23.294;2023-04-25T05:43:16;160943.50;;;8.98;100.00
42945;BME280;28584;42.636;23.294;2023-04-25T05:45:41;161006.19;;;9.21;100.00
42945;BME280;28584;42.636;23.294;2023-04-25T05:48:07;161054.22;;;9.39;100.00
42945;BME280;28584;42.636;23.294;2023-04-25T05:50:32;161095.63;;;9.55;100.00
42945;BME280;28584;42.636;23.294;2023-04-25T05:52:58;161167.72;;;9.82;100.00
42945;BME280;28584;42.636;23.294;2023-04-25T05:55:23;161206.41;;;9.96;100.00
42945;BME280;28584;42.636;23.294;2023-04-25T05:57:48;161213.13;;;9.99;100.00
42945;BME280;28584;42.636;23.294;2023-04-25T06:00:14;161245.19;;;10.11;100.00
42945;BME280;28584;42.636;23.294;2023-04-25T06:02:41;161245.19;;;10.11;100.00
42945;BME280;28584;42.636;23.294;2023-04-25T06:05:07;161251.84;;;10.13;100.00
42945;BME280;28584;42.636;23.294;2023-04-25T06:07:32;161227.81;;;10.04;100.00
42945;BME280;28584;42.636;23.294;2023-04-25T06:09:58;161219.78;;;10.01;100.00
42945;BME280;28584;42.636;23.294;2023-04-25T06:12:24;161206.41;;;9.96;100.00
42945;BME280;28584;42.636;23.294;2023-04-25T06:14:50;161247.84;;;10.12;100.00
42945;BME280;28584;42.636;23.294;2023-04-25T06:17:15;161265.25;;;10.18;100.00
42945;BME280;28584;42.636;23.294;2023-04-25T06:19:40;161225.09;;;10.03;100.00
42945;BME280;28584;42.636;23.294;2023-04-25T06:22:07;161201.09;;;9.94;100.00
42945;BME280;28584;42.636;23.294;2023-04-25T06:24:33;161163.69;;;9.80;100.00
42945;BME280;28584;42.636;23.294;2023-04-25T06:26:59;161211.75;;;9.98;100.00
42945;BME280;28584;42.636;23.294;2023-04-25T06:29:25;161235.88;;;10.07;100.00
42945;BME280;28584;42.636;23.294;2023-04-25T06:31:50;161267.91;;;10.19;100.00
42945;BME280;28584;42.636;23.294;2023-04-25T06:34:15;161307.94;;;10.34;100.00
42945;BME280;28584;42.636;23.294;2023-04-25T06:36:41;161384.13;;;10.63;100.00
42945;BME280;28584;42.636;23.294;2023-04-25T06:39:06;161464.28;;;10.93;100.00
42945;BME280;28584;42.636;23.294;2023-04-25T06:41:32;161476.34;;;10.97;100.00
42945;BME280;28584;42.636;23.294;2023-04-25T06:43:57;161509.75;;;11.10;100.00
42945;BME280;28584;42.636;23.294;2023-04-25T06:46:22;161589.91;;;11.40;100.00
42945;BME280;28584;42.636;23.294;2023-04-25T06:48:48;161647.47;;;11.62;100.00
42945;BME280;28584;42.636;23.294;2023-04-25T06:51:13;161656.84;;;11.65;100.00
42945;BME280;28584;42.636;23.294;2023-04-25T06:53:39;161722.34;;;11.90;100.00
42945;BME280;28584;42.636;23.294;2023-04-25T06:56:05;161785.22;;;12.13;100.00
42945;BME280;28584;42.636;23.294;2023-04-25T06:58:31;161873.50;;;12.46;100.00
42945;BME280;28584;42.636;23.294;2023-04-25T07:00:56;161928.38;;;12.67;100.00
42945;BME280;28584;42.636;23.294;2023-04-25T07:03:22;161931.03;;;12.68;100.00
42945;BME280;28584;42.636;23.294;2023-04-25T07:05:47;161941.72;;;12.72;100.00
42945;BME280;28584;42.636;23.294;2023-04-25T07:08:13;161913.63;;;12.61;100.00
42945;BME280;28584;42.636;23.294;2023-04-25T07:10:38;161890.88;;;12.53;100.00
42945;BME280;28584;42.636;23.294;2023-04-25T07:13:03;161844.06;;;12.35;100.00
42945;BME280;28584;42.636;23.294;2023-04-25T07:15:29;161818.66;;;12.26;100.00
42945;BME280;28584;42.636;23.294;2023-04-25T07:17:54;161799.94;;;12.19;100.00
42945;BME280;28584;42.636;23.294;2023-04-25T07:20:20;161802.59;;;12.20;100.00
42945;BME280;28584;42.636;23.294;2023-04-25T07:22:45;161844.06;;;12.35;100.00
42945;BME280;28584;42.636;23.294;2023-04-25T07:25:11;161872.13;;;12.46;100.00
42945;BME280;28584;42.636;23.294;2023-04-25T07:27:36;161893.56;;;12.54;100.00
42945;BME280;28584;42.636;23.294;2023-04-25T07:30:02;161949.78;;;12.75;100.00
42945;BME280;28584;42.636;23.294;2023-04-25T07:32:29;161984.59;;;12.88;100.00
42945;BME280;28584;42.636;23.294;2023-04-25T07:34:55;161916.31;;;12.62;100.00
42945;BME280;28584;42.636;23.294;2023-04-25T07:37:20;161872.13;;;12.46;100.00
42945;BME280;28584;42.636;23.294;2023-04-25T07:39:45;161957.81;;;12.78;100.00
42945;BME280;28584;42.636;23.294;2023-04-25T07:42:12;162043.50;;;13.10;100.00
42945;BME280;28584;42.636;23.294;2023-04-25T07:44:37;162255.06;;;13.89;100.00
42945;BME280;28584;42.636;23.294;2023-04-25T07:47:07;162389.03;;;14.39;100.00
42945;BME280;28584;42.636;23.294;2023-04-25T07:49:36;162410.53;;;14.47;100.00
42945;BME280;28584;42.636;23.294;2023-04-25T07:52:03;162406.50;;;14.46;100.00
42945;BME280;28584;42.636;23.294;2023-04-25T07:54:29;162419.88;;;14.51;100.00
42945;BME280;28584;42.636;23.294;2023-04-25T07:56:55;162403.78;;;14.45;100.00
42945;BME280;28584;42.636;23.294;2023-04-25T07:59:21;162496.28;;;14.79;100.00
42945;BME280;28584;42.636;23.294;2023-04-25T08:01:47;162706.78;;;15.58;100.00
42945;BME280;28584;42.636;23.294;2023-04-25T08:04:12;162848.94;;;16.11;100.00
42945;BME280;28584;42.636;23.294;2023-04-25T08:06:37;163153.66;;;17.25;100.00
42945;BME280;28584;42.636;23.294;2023-04-25T08:09:03;163376.66;;;18.08;100.00
42945;BME280;28584;42.636;23.294;2023-04-25T08:11:29;163420.97;;;18.24;86.26
42945;BME280;28584;42.636;23.294;2023-04-25T08:13:55;163461.31;;;18.39;94.79
42945;BME280;28584;42.636;23.294;2023-04-25T08:16:20;163537.91;;;18.68;84.68
42945;BME280;28584;42.636;23.294;2023-04-25T08:18:46;163743.66;;;19.45;80.06
42945;BME280;28584;42.636;23.294;2023-04-25T08:21:11;163070.44;;;16.94;71.05
42945;BME280;28584;42.636;23.294;2023-04-25T08:23:38;163398.13;;;18.16;81.50
42945;BME280;28584;42.636;23.294;2023-04-25T08:26:03;163457.28;;;18.38;75.79
42945;BME280;28584;42.636;23.294;2023-04-25T08:28:29;163613.19;;;18.96;68.32
42945;BME280;28584;42.636;23.294;2023-04-25T08:30:55;163255.75;;;17.63;71.23
42945;BME280;28584;42.636;23.294;2023-04-25T08:33:20;162848.94;;;16.11;94.05
42945;BME280;28584;42.636;23.294;2023-04-25T08:35:46;162999.31;;;16.67;100.00
42945;BME280;28584;42.636;23.294;2023-04-25T08:38:11;162352.91;;;14.26;100.00
42945;BME280;28584;42.636;23.294;2023-04-25T08:40:38;162098.38;;;13.30;100.00
42945;BME280;28584;42.636;23.294;2023-04-25T08:43:08;162062.25;;;13.17;100.00
42945;BME280;28584;42.636;23.294;2023-04-25T08:45:39;162241.63;;;13.84;100.00
42945;BME280;28584;42.636;23.294;2023-04-25T08:48:16;162411.81;;;14.48;100.00
42945;BME280;28584;42.636;23.294;2023-04-25T08:50:51;162659.84;;;15.40;100.00
42945;BME280;28584;42.636;23.294;2023-04-25T08:53:22;162850.31;;;16.11;87.67
42945;BME280;28584;42.636;23.294;2023-04-25T08:55:48;162983.19;;;16.61;74.31
42945;BME280;28584;42.636;23.294;2023-04-25T08:58:14;163027.47;;;16.78;73.32
42945;BME280;28584;42.636;23.294;2023-04-25T09:00:40;163000.63;;;16.68;67.95
42945;BME280;28584;42.636;23.294;2023-04-25T09:03:05;163093.25;;;17.02;65.52
42945;BME280;28584;42.636;23.294;2023-04-25T09:05:32;163423.63;;;18.25;62.50
42945;BME280;28584;42.636;23.294;2023-04-25T09:07:57;163648.16;;;19.09;58.05
42945;BME280;28584;42.636;23.294;2023-04-25T09:10:23;163129.47;;;17.16;69.48
42945;BME280;28584;42.636;23.294;2023-04-25T09:13:24;162745.69;;;15.72;100.00
42945;BME280;28584;42.636;23.294;2023-04-25T09:15:54;162700.09;;;15.55;100.00
42945;BME280;28584;42.636;23.294;2023-04-25T09:20:51;162557.91;;;15.02;78.32
42945;BME280;28584;42.636;23.294;2023-04-25T09:23:18;162473.47;;;14.71;100.00
42945;BME280;28584;42.636;23.294;2023-04-25T09:25:47;162488.22;;;14.76;100.00
42945;BME280;28584;42.636;23.294;2023-04-25T09:28:13;162413.19;;;14.48;100.00
42945;BME280;28584;42.636;23.294;2023-04-25T09:30:38;162383.72;;;14.37;100.00
42945;BME280;28584;42.636;23.294;2023-04-25T09:33:08;162492.25;;;14.78;100.00
42945;BME280;28584;42.636;23.294;2023-04-25T09:35:44;162481.53;;;14.74;100.00
42945;BME280;28584;42.636;23.294;2023-04-25T09:38:18;162418.50;;;14.50;100.00
42945;BME280;28584;42.636;23.294;2023-04-25T09:40:45;162151.94;;;13.50;100.00
42945;BME280;28584;42.636;23.294;2023-04-25T09:43:21;161997.94;;;12.93;100.00
42945;BME280;28584;42.636;23.294;2023-04-25T09:45:48;162046.16;;;13.11;100.00
42945;BME280;28584;42.636;23.294;2023-04-25T09:48:19;162188.13;;;13.64;100.00
42945;BME280;28584;42.636;23.294;2023-04-25T09:51:10;162419.88;;;14.51;100.00
42945;BME280;28584;42.636;23.294;2023-04-25T09:53:37;162751.03;;;15.74;100.00
42945;BME280;28584;42.636;23.294;2023-04-25T09:56:05;163051.66;;;16.87;100.00
42945;BME280;28584;42.636;23.294;2023-04-25T09:58:32;163108.03;;;17.08;100.00
42945;BME280;28584;42.636;23.294;2023-04-25T10:01:00;162933.53;;;16.42;82.67
42945;BME280;28584;42.636;23.294;2023-04-25T10:03:29;162987.22;;;16.63;80.98
42945;BME280;28584;42.636;23.294;2023-04-25T10:05:57;162983.19;;;16.61;83.13
42945;BME280;28584;42.636;23.294;2023-04-25T10:08:24;162710.81;;;15.59;73.74
42945;BME280;28584;42.636;23.294;2023-04-25T10:10:51;162584.72;;;15.12;80.29
42945;BME280;28584;42.636;23.294;2023-04-25T10:13:17;162547.19;;;14.98;80.03
42945;BME280;28584;42.636;23.294;2023-04-25T10:15:43;162536.47;;;14.94;77.43
42945;BME280;28584;42.636;23.294;2023-04-25T10:18:10;162363.59;;;14.30;89.55
42945;BME280;28584;42.636;23.294;2023-04-25T10:20:36;162153.28;;;13.51;100.00
42945;BME280;28584;42.636;23.294;2023-04-25T10:23:12;162255.06;;;13.89;100.00
42945;BME280;28584;42.636;23.294;2023-04-25T10:25:39;162551.19;;;15.00;100.00
42945;BME280;28584;42.636;23.294;2023-04-25T10:28:05;162885.19;;;16.24;72.08
42945;BME280;28584;42.636;23.294;2023-04-25T10:30:31;162987.22;;;16.63;62.92
42945;BME280;28584;42.636;23.294;2023-04-25T10:32:58;163036.88;;;16.81;56.63
42945;BME280;28584;42.636;23.294;2023-04-25T10:35:28;163191.25;;;17.39;55.05
42945;BME280;28584;42.636;23.294;2023-04-25T10:37:58;163113.34;;;17.10;53.28
42945;BME280;28584;42.636;23.294;2023-04-25T10:40:24;163304.09;;;17.81;53.07
42945;BME280;28584;42.636;23.294;2023-04-25T10:42:52;163355.13;;;18.00;52.33
42945;BME280;28584;42.636;23.294;2023-04-25T10:45:17;163282.59;;;17.73;52.42
42945;BME280;28584;42.636;23.294;2023-04-25T10:47:44;163266.50;;;17.67;51.97
42945;BME280;28584;42.636;23.294;2023-04-25T10:50:14;163278.59;;;17.71;51.68
42945;BME280;28584;42.636;23.294;2023-04-25T10:52:43;163328.25;;;17.90;51.65
42945;BME280;28584;42.636;23.294;2023-04-25T10:55:10;163192.56;;;17.39;51.05
42945;BME280;28584;42.636;23.294;2023-04-25T10:57:42;163253.03;;;17.62;53.18
42945;BME280;28584;42.636;23.294;2023-04-25T11:00:18;163591.69;;;18.88;54.69
42945;BME280;28584;42.636;23.294;2023-04-25T11:02:52;163969.66;;;20.29;51.74
42945;BME280;28584;42.636;23.294;2023-04-25T11:05:33;164062.47;;;20.63;49.12
42945;BME280;28584;42.636;23.294;2023-04-25T11:07:59;164275.22;;;21.42;47.21
42945;BME280;28584;42.636;23.294;2023-04-25T11:10:32;164071.94;;;20.67;45.03
42945;BME280;28584;42.636;23.294;2023-04-25T11:12:58;163701.97;;;19.29;45.62
42945;BME280;28584;42.636;23.294;2023-04-25T11:15:25;163903.69;;;20.04;45.74
42945;BME280;28584;42.636;23.294;2023-04-25T11:17:52;164070.56;;;20.66;45.16
42945;BME280;28584;42.636;23.294;2023-04-25T11:20:18;163909.06;;;20.06;45.55
42945;BME280;28584;42.636;23.294;2023-04-25T11:22:45;163771.88;;;19.55;48.10
42945;BME280;28584;42.636;23.294;2023-04-25T11:25:13;163640.06;;;19.06;46.75
42945;BME280;28584;42.636;23.294;2023-04-25T11:27:52;163185.88;;;17.37;49.21
42945;BME280;28584;42.636;23.294;2023-04-25T11:30:20;162901.25;;;16.30;52.55
42945;BME280;28584;42.636;23.294;2023-04-25T11:32:45;162523.09;;;14.89;58.03
42945;BME280;28584;42.636;23.294;2023-04-25T11:35:11;162315.34;;;14.12;61.99
42945;BME280;28584;42.636;23.294;2023-04-25T11:37:41;162271.16;;;13.95;72.57
42945;BME280;28584;42.636;23.294;2023-04-25T11:40:07;162248.38;;;13.87;81.54
42945;BME280;28584;42.636;23.294;2023-04-25T11:42:36;162072.94;;;13.21;100.00
42945;BME280;28584;42.636;23.294;2023-04-25T11:45:03;161801.25;;;12.19;100.00
42945;BME280;28584;42.636;23.294;2023-04-25T11:47:33;161579.22;;;11.36;100.00
42945;BME280;28584;42.636;23.294;2023-04-25T11:49:59;161504.38;;;11.08;100.00
42945;BME280;28584;42.636;23.294;2023-04-25T11:52:36;161326.66;;;10.41;100.00
42945;BME280;28584;42.636;23.294;2023-04-25T11:55:01;161263.88;;;10.18;100.00
42945;BME280;28584;42.636;23.294;2023-04-25T11:57:31;161261.22;;;10.17;100.00
42945;BME280;28584;42.636;23.294;2023-04-25T12:00:05;161302.63;;;10.32;100.00
42945;BME280;28584;42.636;23.294;2023-04-25T12:02:31;161421.53;;;10.77;100.00
42945;BME280;28584;42.636;23.294;2023-04-25T12:04:59;161589.91;;;11.40;100.00
42945;BME280;28584;42.636;23.294;2023-04-25T12:07:29;161747.78;;;11.99;100.00
42945;BME280;28584;42.636;23.294;2023-04-25T12:09:55;161972.53;;;12.83;100.00
42945;BME280;28584;42.636;23.294;2023-04-25T12:12:21;162216.22;;;13.74;100.00
42945;BME280;28584;42.636;23.294;2023-04-25T12:14:47;162415.84;;;14.49;100.00
42945;BME280;28584;42.636;23.294;2023-04-25T12:17:14;162544.50;;;14.97;100.00
42945;BME280;28584;42.636;23.294;2023-04-25T12:19:39;162555.22;;;15.01;100.00
42945;BME280;28584;42.636;23.294;2023-04-25T12:22:23;162641.00;;;15.33;100.00
42945;BME280;28584;42.636;23.294;2023-04-25T12:24:48;162740.31;;;15.70;100.00
42945;BME280;28584;42.636;23.294;2023-04-25T12:27:16;162832.88;;;16.05;100.00
42945;BME280;28584;42.636;23.294;2023-04-25T12:29:51;162776.56;;;15.84;100.00
42945;BME280;28584;42.636;23.294;2023-04-25T12:32:16;162708.13;;;15.58;100.00
42945;BME280;28584;42.636;23.294;2023-04-25T12:34:43;162620.94;;;15.26;100.00
42945;BME280;28584;42.636;23.294;2023-04-25T12:37:09;162505.63;;;14.83;100.00
42945;BME280;28584;42.636;23.294;2023-04-25T12:39:34;161935.06;;;12.69;100.00